Time;durP1;ratioP1;P1;durP2;ratioP2;P2;SDS_P1;SDS_P2;PMS_P1;PMS_P2;Temp;Humidity;BMP_temperature;BMP_pressure;BME280_temperature;BME280_humidity;BME280_pressure;Samples;Min_cycle;Max_cycle;Signal;HPM_P1;HPM_P2
2021/03/15 00:00:11;;;;;;;2.77;1.23;;;6.60;88.10;;;;;;5072653;28;20045;-68
2021/03/15 00:02:38;;;;;;;3.13;1.27;;;6.60;88.30;;;;;;5072076;28;20059;-68
2021/03/15 00:05:06;;;;;;;2.20;0.70;;;6.60;88.10;;;;;;5072467;28;20041;-68
2021/03/15 00:07:31;;;;;;;3.13;0.87;;;6.60;88.20;;;;;;5071878;28;20303;-68
2021/03/15 00:09:57;;;;;;;4.50;1.07;;;6.60;88.10;;;;;;5071444;28;20363;-68
2021/03/15 00:12:22;;;;;;;3.53;1.07;;;6.60;87.90;;;;;;5072275;28;20113;-68
2021/03/15 00:14:48;;;;;;;6.40;1.10;;;6.60;88.20;;;;;;5072241;28;20503;-68
2021/03/15 00:17:14;;;;;;;3.33;1.00;;;6.50;88.20;;;;;;5071550;28;20097;-68
2021/03/15 00:19:39;;;;;;;3.60;1.13;;;6.50;88.30;;;;;;5071984;28;20047;-68
2021/03/15 00:22:05;;;;;;;3.43;1.37;;;6.50;88.30;;;;;;5071955;28;20132;-68
2021/03/15 00:24:31;;;;;;;2.57;1.13;;;6.50;88.20;;;;;;5071556;28;20048;-68
2021/03/15 00:26:56;;;;;;;0.90;0.80;;;6.40;88.20;;;;;;5071867;28;20048;-68
2021/03/15 00:29:22;;;;;;;3.67;1.07;;;6.40;88.40;;;;;;5071400;28;20063;-68
2021/03/15 00:31:49;;;;;;;1.90;0.90;;;6.30;88.50;;;;;;5071843;28;20045;-68
2021/03/15 00:34:14;;;;;;;2.80;0.90;;;6.30;88.80;;;;;;5071939;28;20048;-68
2021/03/15 00:36:41;;;;;;;3.37;1.30;;;6.20;88.80;;;;;;5071160;28;20291;-69
2021/03/15 00:39:07;;;;;;;2.40;1.07;;;6.30;89.10;;;;;;5071566;28;20554;-68
2021/03/15 00:41:32;;;;;;;3.67;1.00;;;6.30;89.00;;;;;;5071917;28;20291;-68
2021/03/15 00:43:58;;;;;;;2.67;0.77;;;6.30;89.10;;;;;;5070720;28;20830;-68
2021/03/15 00:46:24;;;;;;;2.53;0.90;;;6.40;88.90;;;;;;5071707;28;20040;-69
2021/03/15 00:48:50;;;;;;;1.97;0.70;;;6.30;88.60;;;;;;5071641;28;20298;-68
2021/03/15 00:51:15;;;;;;;1.97;0.80;;;6.30;88.80;;;;;;5070800;28;20055;-68
2021/03/15 00:53:41;;;;;;;2.60;0.80;;;6.40;88.90;;;;;;5071530;28;20507;-68
2021/03/15 00:56:07;;;;;;;1.53;0.83;;;6.40;88.80;;;;;;5071432;28;20129;-68
2021/03/15 00:58:32;;;;;;;1.13;0.60;;;6.40;88.80;;;;;;5071203;28;20059;-68
2021/03/15 01:00:58;;;;;;;3.97;0.77;;;6.40;88.70;;;;;;5071364;28;20137;-68
2021/03/15 01:03:24;;;;;;;1.57;0.90;;;6.40;88.60;;;;;;5071364;28;20442;-68
2021/03/15 01:05:51;;;;;;;2.80;0.70;;;6.30;88.90;;;;;;5070623;28;20049;-68
2021/03/15 01:08:17;;;;;;;1.70;0.67;;;6.40;88.80;;;;;;5071287;28;20048;-68
2021/03/15 01:10:45;;;;;;;1.17;0.47;;;6.30;88.80;;;;;;5071144;28;20302;-69
2021/03/15 01:13:12;;;;;;;2.23;0.73;;;6.30;89.00;;;;;;5070390;28;20485;-68
2021/03/15 01:15:42;;;;;;;2.83;1.33;;;6.30;88.80;;;;;;5071556;28;20291;-68
2021/03/15 01:18:08;;;;;;;5.77;2.43;;;6.20;88.70;;;;;;5070924;28;20710;-68
2021/03/15 01:20:34;;;;;;;11.37;3.93;;;6.20;88.70;;;;;;5070738;28;20291;-68
2021/03/15 01:23:00;;;;;;;4.67;1.40;;;6.10;88.80;;;;;;5071023;28;20052;-68
2021/03/15 01:25:37;;;;;;;4.30;1.17;;;6.10;89.00;;;;;;5071106;28;20291;-68
2021/03/15 01:28:09;;;;;;;3.17;0.97;;;6.00;89.10;;;;;;5071188;28;20617;-69
2021/03/15 01:30:36;;;;;;;4.95;0.88;;;6.00;89.20;;;;;;5071530;28;20294;-68
2021/03/15 01:33:03;;;;;;;3.97;0.87;;;5.90;89.20;;;;;;5070079;28;20056;-68
2021/03/15 01:35:29;;;;;;;2.27;0.60;;;5.90;89.30;;;;;;5071241;28;20302;-68
2021/03/15 01:37:55;;;;;;;2.80;0.60;;;5.90;89.20;;;;;;5070943;28;20782;-68
2021/03/15 01:40:23;;;;;;;1.20;0.70;;;5.90;89.40;;;;;;5070624;28;20995;-68
2021/03/15 01:42:49;;;;;;;1.97;0.60;;;5.90;89.40;;;;;;5070862;28;20372;-69
2021/03/15 01:45:14;;;;;;;2.00;0.90;;;5.80;89.20;;;;;;5070989;28;20394;-69
2021/03/15 01:47:42;;;;;;;2.70;0.60;;;5.90;89.30;;;;;;5070174;28;20102;-69
2021/03/15 01:50:10;;;;;;;1.77;0.80;;;5.80;89.40;;;;;;5070751;28;20302;-69
2021/03/15 01:52:37;;;;;;;2.47;0.80;;;5.80;89.30;;;;;;5071377;28;20309;-68
2021/03/15 01:55:05;;;;;;;5.80;0.90;;;5.80;89.30;;;;;;5070127;28;20302;-68
2021/03/15 01:57:32;;;;;;;2.50;0.83;;;5.80;89.30;;;;;;5071120;28;20771;-68
2021/03/15 01:59:58;;;;;;;1.83;0.70;;;5.80;89.40;;;;;;5070791;28;20364;-68
2021/03/15 02:02:25;;;;;;;2.23;0.77;;;5.80;89.40;;;;;;5070136;28;20303;-68
2021/03/15 02:04:51;;;;;;;0.77;0.70;;;5.80;89.50;;;;;;5070759;28;20087;-69
2021/03/15 02:07:17;;;;;;;3.70;0.70;;;5.80;89.50;;;;;;5071004;28;20334;-69
2021/03/15 02:09:43;;;;;;;5.10;0.90;;;5.80;89.60;;;;;;5070158;28;20044;-68
2021/03/15 02:12:14;;;;;;;2.00;0.80;;;5.80;89.70;;;;;;5070589;28;20060;-69
2021/03/15 02:15:17;;;;;;;3.10;1.23;;;5.80;89.80;;;;;;5070532;28;20040;-69
2021/03/15 02:18:08;;;;;;;3.83;1.00;;;5.80;89.80;;;;;;5070632;28;20510;-68
2021/03/15 02:20:42;;;;;;;1.45;1.10;;;5.80;89.50;;;;;;5071063;28;20059;-68
2021/03/15 02:23:25;;;;;;;2.83;1.07;;;5.70;89.40;;;;;;5069921;28;20059;-69
2021/03/15 02:26:17;;;;;;;2.93;1.00;;;5.70;89.50;;;;;;5070888;28;20338;-69
2021/03/15 02:29:21;;;;;;;1.97;0.73;;;5.70;89.60;;;;;;5070708;28;20374;-69
2021/03/15 02:31:56;;;;;;;3.43;1.13;;;5.60;89.80;;;;;;5073745;28;20644;-69
2021/03/15 02:34:52;;;;;;;1.63;0.90;;;5.70;89.90;;;;;;5074107;28;20315;-69
2021/03/15 02:37:20;;;;;;;2.33;1.00;;;5.60;89.90;;;;;;5073483;28;20307;-69
2021/03/15 02:39:50;;;;;;;3.63;1.00;;;5.60;89.90;;;;;;5073962;28;20326;-69
2021/03/15 02:42:19;;;;;;;1.37;1.03;;;5.60;89.80;;;;;;5073634;28;20307;-69
2021/03/15 02:44:51;;;;;;;3.10;1.30;;;5.60;89.90;;;;;;5073145;28;20795;-69
2021/03/15 02:47:20;;;;;;;3.15;1.00;;;5.50;89.90;;;;;;5073899;28;20779;-69
2021/03/15 02:49:50;;;;;;;2.20;1.20;;;5.50;90.00;;;;;;5073850;28;20048;-69
2021/03/15 02:52:18;;;;;;;2.20;0.90;;;5.50;90.10;;;;;;5073373;28;20349;-69
2021/03/15 02:54:46;;;;;;;2.77;0.90;;;5.50;90.10;;;;;;5073758;28;20301;-68
2021/03/15 02:57:17;;;;;;;3.20;1.07;;;5.50;90.10;;;;;;5073189;28;20298;-69
2021/03/15 02:59:46;;;;;;;2.67;1.27;;;5.50;90.10;;;;;;5073830;28;20326;-69
2021/03/15 03:02:12;;;;;;;2.87;1.40;;;5.60;90.10;;;;;;5073495;28;20306;-69
2021/03/15 03:04:38;;;;;;;5.40;1.10;;;5.50;90.00;;;;;;5073033;28;20294;-69
2021/03/15 03:07:05;;;;;;;2.57;1.40;;;5.50;90.00;;;;;;5073578;28;20299;-69
2021/03/15 03:09:33;;;;;;;4.63;1.30;;;5.50;90.00;;;;;;5073635;28;20295;-69
2021/03/15 03:12:00;;;;;;;4.83;1.27;;;5.50;90.00;;;;;;5072895;28;20348;-69
2021/03/15 03:14:27;;;;;;;7.77;1.30;;;5.40;90.00;;;;;;5073576;28;20310;-68
2021/03/15 03:16:56;;;;;;;2.00;0.90;;;5.40;90.10;;;;;;5073386;28;20445;-69
2021/03/15 03:19:23;;;;;;;2.43;1.20;;;5.40;90.20;;;;;;5072437;28;20299;-68
2021/03/15 03:21:50;;;;;;;1.80;1.00;;;5.40;90.20;;;;;;5073174;28;20299;-69
2021/03/15 03:24:18;;;;;;;3.53;1.37;;;5.40;90.20;;;;;;5073181;28;20397;-68
2021/03/15 03:26:45;;;;;;;4.70;2.03;;;5.40;90.30;;;;;;5072621;28;20295;-69
2021/03/15 03:29:13;;;;;;;5.23;1.50;;;5.50;90.30;;;;;;5073050;28;20652;-69
2021/03/15 03:31:42;;;;;;;4.93;1.80;;;5.50;90.30;;;;;;5073103;28;20295;-69
2021/03/15 03:34:09;;;;;;;4.20;1.67;;;5.50;90.40;;;;;;5072205;28;20374;-68
2021/03/15 03:36:35;;;;;;;4.43;1.40;;;5.50;90.30;;;;;;5073147;28;20306;-69
2021/03/15 03:39:01;;;;;;;8.83;2.07;;;5.60;90.30;;;;;;5072972;28;20298;-69
2021/03/15 03:41:26;;;;;;;8.63;2.03;;;5.70;90.30;;;;;;5072338;28;20817;-69
2021/03/15 03:43:52;;;;;;;5.00;1.70;;;5.70;90.30;;;;;;5072533;28;20131;-69
2021/03/15 03:46:18;;;;;;;5.30;1.70;;;5.70;90.30;;;;;;5072001;28;20045;-69
2021/03/15 03:48:44;;;;;;;4.53;1.40;;;5.90;90.30;;;;;;5072608;28;20097;-68
2021/03/15 03:51:10;;;;;;;8.03;2.00;;;5.80;90.20;;;;;;5072682;28;20052;-69
2021/03/15 03:53:47;;;;;;;7.13;1.70;;;5.90;90.10;;;;;;5072255;28;20389;-68
2021/03/15 03:56:16;;;;;;;10.20;2.37;;;5.90;90.20;;;;;;5072431;28;20809;-69
2021/03/15 03:58:49;;;;;;;5.40;1.67;;;5.90;90.20;;;;;;5072717;28;20791;-69
2021/03/15 04:01:15;;;;;;;4.37;1.80;;;6.00;90.20;;;;;;5071592;28;20333;-69
2021/03/15 04:03:45;;;;;;;11.43;2.37;;;6.10;90.10;;;;;;5072226;28;20314;-69
2021/03/15 04:06:14;;;;;;;10.47;2.13;;;6.10;90.10;;;;;;5072514;28;20368;-69
2021/03/15 04:08:59;;;;;;;9.97;2.30;;;6.10;90.10;;;;;;5071568;28;20349;-69
2021/03/15 04:11:29;;;;;;;11.50;2.40;;;6.20;90.10;;;;;;5072134;28;20793;-69
2021/03/15 04:13:57;;;;;;;8.07;2.33;;;6.10;90.00;;;;;;5072138;28;20298;-68
2021/03/15 04:16:30;;;;;;;8.93;2.90;;;6.10;90.00;;;;;;5071557;28;20391;-69
2021/03/15 04:18:59;;;;;;;7.67;2.30;;;6.10;90.00;;;;;;5072011;28;20381;-69
2021/03/15 04:21:29;;;;;;;7.90;3.27;;;6.00;89.90;;;;;;5071416;28;20313;-69
2021/03/15 04:23:56;;;;;;;9.90;2.50;;;6.00;90.00;;;;;;5071987;28;20314;-69
2021/03/15 04:26:23;;;;;;;10.43;3.53;;;5.90;90.00;;;;;;5071872;28;20294;-69
2021/03/15 04:28:50;;;;;;;10.97;3.00;;;5.90;90.10;;;;;;5071251;28;20302;-69
2021/03/15 04:31:17;;;;;;;16.00;3.30;;;5.80;90.20;;;;;;5071806;28;20655;-68
2021/03/15 04:33:44;;;;;;;15.80;3.30;;;5.80;90.30;;;;;;5071709;28;20774;-69
2021/03/15 04:36:13;;;;;;;10.03;3.40;;;5.80;90.30;;;;;;5071112;28;20667;-69
2021/03/15 04:38:40;;;;;;;12.90;3.20;;;5.80;90.30;;;;;;5071870;28;20309;-69
2021/03/15 04:41:06;;;;;;;13.43;3.03;;;5.70;90.30;;;;;;5071654;28;20397;-69
2021/03/15 04:43:32;;;;;;;11.57;3.10;;;5.70;90.40;;;;;;5071021;28;20663;-69
2021/03/15 04:45:58;;;;;;;11.03;3.10;;;5.70;90.40;;;;;;5071744;28;20523;-69
2021/03/15 04:48:29;;;;;;;17.90;3.43;;;5.70;90.50;;;;;;5071754;28;20386;-69
2021/03/15 04:50:59;;;;;;;9.93;3.20;;;5.70;90.50;;;;;;5070858;28;20291;-69
2021/03/15 04:53:27;;;;;;;16.53;3.57;;;5.70;90.50;;;;;;5071008;28;20303;-69
2021/03/15 04:55:56;;;;;;;15.17;3.90;;;5.70;90.50;;;;;;5071747;28;20298;-69
2021/03/15 04:58:23;;;;;;;13.87;3.10;;;5.60;90.50;;;;;;5070902;28;20298;-69
2021/03/15 05:00:52;;;;;;;12.27;3.30;;;5.60;90.60;;;;;;5071527;28;20291;-69
2021/03/15 05:03:19;;;;;;;10.57;3.57;;;5.60;90.50;;;;;;5071134;28;20714;-69
2021/03/15 05:05:46;;;;;;;18.33;3.67;;;5.60;90.60;;;;;;5070545;28;20352;-69
2021/03/15 05:08:16;;;;;;;12.97;3.00;;;5.70;90.60;;;;;;5071148;28;20311;-68
2021/03/15 05:10:42;;;;;;;17.77;3.53;;;5.70;90.60;;;;;;5070820;28;20620;-69
2021/03/15 05:13:09;;;;;;;13.83;3.90;;;5.70;90.60;;;;;;5071312;28;20295;-68
2021/03/15 05:15:36;;;;;;;14.90;3.57;;;5.70;90.50;;;;;;5071388;28;20780;-69
2021/03/15 05:18:05;;;;;;;23.30;4.17;;;5.80;90.60;;;;;;5070227;28;20332;-68
2021/03/15 05:20:35;;;;;;;13.97;3.50;;;5.90;90.50;;;;;;5071430;28;20311;-69
2021/03/15 05:23:01;;;;;;;20.83;3.70;;;5.90;90.60;;;;;;5070992;28;20818;-69
2021/03/15 05:25:27;;;;;;;18.37;3.50;;;6.00;90.50;;;;;;5070852;28;20339;-69
2021/03/15 05:27:54;;;;;;;18.80;3.27;;;6.00;90.40;;;;;;5071137;28;20348;-69
2021/03/15 05:30:22;;;;;;;13.30;2.53;;;6.10;90.30;;;;;;5070976;28;20337;-69
2021/03/15 05:32:50;;;;;;;20.50;4.00;;;6.20;90.30;;;;;;5070201;28;20772;-69
2021/03/15 05:35:17;;;;;;;18.67;3.23;;;6.20;90.20;;;;;;5070958;28;20291;-68
2021/03/15 05:37:45;;;;;;;15.67;2.87;;;6.20;90.10;;;;;;5071222;28;20290;-68
2021/03/15 05:40:15;;;;;;;20.47;3.97;;;6.20;90.20;;;;;;5070502;28;20295;-69
2021/03/15 05:43:05;;;;;;;18.43;2.63;;;6.10;90.10;;;;;;5070802;28;20446;-69
2021/03/15 05:45:50;;;;;;;19.27;3.83;;;6.20;90.20;;;;;;5071113;28;20783;-69
2021/03/15 05:48:46;;;;;;;15.20;2.73;;;6.10;90.10;;;;;;5070863;28;20797;-68
2021/03/15 05:51:22;;;;;;;17.10;3.70;;;6.10;90.20;;;;;;5070883;28;20428;-68
2021/03/15 05:54:07;;;;;;;12.60;2.77;;;6.20;90.20;;;;;;5070111;28;20295;-68
2021/03/15 05:56:44;;;;;;;15.10;2.53;;;6.10;90.10;;;;;;5071249;28;20294;-68
2021/03/15 05:59:21;;;;;;;15.23;3.17;;;6.10;90.20;;;;;;5070931;28;20298;-68
2021/03/15 06:02:04;;;;;;;13.97;3.07;;;6.10;90.20;;;;;;5070165;28;20378;-68
2021/03/15 06:04:45;;;;;;;17.47;3.17;;;6.10;90.10;;;;;;5070885;28;20311;-68
2021/03/15 06:07:19;;;;;;;13.02;2.70;;;6.10;90.10;;;;;;5074073;28;20291;-68
2021/03/15 06:10:06;;;;;;;18.93;3.30;;;6.10;90.20;;;;;;5074581;28;20132;-68
2021/03/15 06:12:44;;;;;;;19.27;3.57;;;6.20;90.20;;;;;;5074641;28;20806;-68
2021/03/15 06:15:10;;;;;;;16.20;3.63;;;6.10;90.10;;;;;;5073876;28;20333;-69
2021/03/15 06:17:36;;;;;;;13.93;2.93;;;6.10;90.10;;;;;;5074533;28;20801;-69
2021/03/15 06:20:04;;;;;;;17.33;2.90;;;6.20;90.10;;;;;;5073892;28;20754;-69
2021/03/15 06:22:30;;;;;;;21.20;3.47;;;6.20;90.10;;;;;;5073829;28;20674;-69
2021/03/15 06:24:56;;;;;;;18.53;3.47;;;6.30;90.00;;;;;;5074213;28;20298;-68
2021/03/15 06:27:23;;;;;;;25.23;4.43;;;6.40;89.80;;;;;;5074062;28;20735;-68
2021/03/15 06:29:52;;;;;;;19.67;4.03;;;6.40;89.70;;;;;;5073194;28;20326;-68
2021/03/15 06:32:18;;;;;;;16.47;2.80;;;6.40;89.70;;;;;;5073822;28;20309;-68
2021/03/15 06:34:45;;;;;;;24.07;4.80;;;6.40;89.70;;;;;;5074172;28;20367;-69
2021/03/15 06:37:13;;;;;;;24.27;3.50;;;6.50;89.40;;;;;;5072963;28;20875;-68
2021/03/15 06:39:40;;;;;;;15.07;2.93;;;6.50;89.30;;;;;;5073705;28;20290;-67
2021/03/15 06:42:09;;;;;;;22.80;3.43;;;6.50;89.30;;;;;;5073130;28;20302;-69
2021/03/15 06:44:35;;;;;;;19.23;3.10;;;6.50;89.10;;;;;;5074099;28;20401;-66
2021/03/15 06:47:01;;;;;;;20.13;3.60;;;6.40;89.10;;;;;;5073525;28;20298;-66
2021/03/15 06:49:29;;;;;;;14.57;2.73;;;6.50;89.30;;;;;;5073083;28;20302;-65
2021/03/15 06:52:09;;;;;;;19.60;3.90;;;6.60;89.10;;;;;;5073434;28;20340;-64
2021/03/15 06:54:35;;;;;;;22.03;3.30;;;6.70;88.90;;;;;;5073412;28;20648;-66
2021/03/15 06:57:33;;;;;;;15.63;2.83;;;6.70;88.50;;;;;;5072473;28;20301;-65
2021/03/15 06:59:59;;;;;;;19.60;3.07;;;6.80;88.20;;;;;;5066163;28;20090;-66
2021/03/15 07:02:29;;;;;;;16.80;3.03;;;6.80;88.30;;;;;;5073394;28;20303;-65
2021/03/15 07:05:07;;;;;;;16.57;3.40;;;6.80;88.00;;;;;;5072588;28;20052;-66
2021/03/15 07:07:33;;;;;;;14.77;2.90;;;6.90;88.00;;;;;;5073639;28;20303;-66
2021/03/15 07:10:00;;;;;;;16.60;2.93;;;6.90;87.70;;;;;;5072896;28;20313;-66
2021/03/15 07:12:26;;;;;;;16.90;3.60;;;6.90;87.70;;;;;;5071932;28;20152;-66
2021/03/15 07:15:04;;;;;;;24.67;3.80;;;6.90;87.60;;;;;;5073136;28;20299;-66
2021/03/15 07:17:30;;;;;;;21.80;3.77;;;6.90;87.80;;;;;;5072159;28;20579;-66
2021/03/15 07:19:55;;;;;;;20.67;3.33;;;7.00;87.70;;;;;;5072910;28;20322;-66
2021/03/15 07:22:26;;;;;;;21.40;3.90;;;7.00;87.70;;;;;;5072963;28;20052;-66
2021/03/15 07:25:07;;;;;;;19.67;3.95;;;7.00;87.80;;;;;;5072439;28;20127;-66
2021/03/15 07:27:35;;;;;;;22.17;3.33;;;7.10;88.00;;;;;;5073222;28;20048;-66
2021/03/15 07:30:25;;;;;;;16.27;3.30;;;7.10;87.70;;;;;;5073164;28;20295;-67
2021/03/15 07:32:51;;;;;;;18.17;3.80;;;7.20;87.70;;;;;;5072111;28;20295;-66
2021/03/15 07:35:28;;;;;;;21.63;3.93;;;7.30;87.80;;;;;;5072843;28;20313;-66
2021/03/15 07:37:54;;;;;;;17.97;4.27;;;7.40;87.80;;;;;;5072765;28;20045;-66
2021/03/15 07:40:44;;;;;;;15.23;3.30;;;7.40;87.90;;;;;;5072041;28;20318;-66
2021/03/15 07:43:23;;;;;;;20.17;4.07;;;7.50;88.10;;;;;;5072472;28;20061;-66
2021/03/15 07:45:49;;;;;;;17.33;2.77;;;7.50;87.80;;;;;;5071756;28;20302;-66
2021/03/15 07:48:16;;;;;;;21.67;4.17;;;7.40;87.80;;;;;;5072519;28;20307;-66
2021/03/15 07:50:53;;;;;;;18.33;3.70;;;7.50;88.30;;;;;;5072262;28;20048;-66
2021/03/15 07:53:34;;;;;;;21.10;4.20;;;7.50;88.60;;;;;;5071943;28;20306;-66
2021/03/15 07:56:01;;;;;;;14.52;2.70;;;7.50;88.70;;;;;;5072357;28;20838;-66
2021/03/15 07:58:34;;;;;;;23.07;3.47;;;7.50;88.60;;;;;;5072736;28;20094;-69
2021/03/15 08:01:02;;;;;;;17.40;3.23;;;7.50;88.40;;;;;;5071446;28;20652;-66
2021/03/15 08:03:28;;;;;;;18.93;3.83;;;7.60;88.50;;;;;;5072690;28;20315;-66
2021/03/15 08:05:56;;;;;;;20.60;3.20;;;7.50;88.40;;;;;;5072410;28;20293;-66
2021/03/15 08:08:23;;;;;;;21.73;3.93;;;7.60;88.60;;;;;;5071441;28;20452;-66
2021/03/15 08:10:49;;;;;;;18.10;3.43;;;7.60;88.40;;;;;;5072301;28;20298;-66
2021/03/15 08:13:19;;;;;;;22.07;2.57;;;7.60;88.00;;;;;;5071921;28;20302;-67
2021/03/15 08:15:46;;;;;;;19.20;3.53;;;7.70;88.20;;;;;;5071202;28;20798;-65
2021/03/15 08:18:18;;;;;;;19.57;3.63;;;7.70;87.80;;;;;;5071943;28;20324;-66
2021/03/15 08:20:45;;;;;;;;;;;7.70;87.70;;;;;;5071572;28;20933;-67
2021/03/15 08:23:16;;;;;;;19.63;2.90;;;7.70;87.60;;;;;;5071774;28;20265;-67
2021/03/15 08:25:44;;;;;;;22.40;3.50;;;7.80;87.80;;;;;;5071789;28;20779;-66
2021/03/15 08:28:11;;;;;;;15.37;3.33;;;7.80;87.80;;;;;;5070369;28;20052;-66
2021/03/15 08:30:42;;;;;;;25.13;3.43;;;7.90;87.50;;;;;;5072246;28;20327;-67
2021/03/15 08:33:12;;;;;;;20.77;3.47;;;7.80;87.70;;;;;;5071852;28;20317;-66
2021/03/15 08:35:38;;;;;;;19.47;3.20;;;7.90;87.70;;;;;;5071418;28;20295;-67
2021/03/15 08:38:04;;;;;;;27.67;4.03;;;8.00;87.60;;;;;;5071665;28;20339;-67
2021/03/15 08:43:21;;;;;;;19.10;2.87;;;8.10;87.20;;;;;;5070502;28;20404;-67
2021/03/15 08:45:55;;;;;;;15.50;3.50;;;8.20;86.80;;;;;;5071577;28;20310;-67
2021/03/15 08:48:33;;;;;;;18.57;2.93;;;8.30;86.40;;;;;;5071697;28;20303;-66
2021/03/15 08:51:03;;;;;;;14.80;3.00;;;8.30;86.20;;;;;;5070784;28;20298;-66
2021/03/15 08:53:42;;;;;;;20.37;2.87;;;8.30;85.80;;;;;;5071836;28;20338;-66
2021/03/15 08:56:13;;;;;;;16.57;2.83;;;8.30;85.80;;;;;;5070770;28;20675;-66
2021/03/15 08:58:39;;;;;;;22.43;2.70;;;8.40;85.90;;;;;;5071490;28;20302;-67
2021/03/15 09:01:09;;;;;;;15.30;3.03;;;8.40;85.40;;;;;;5070917;28;20295;-67
2021/03/15 09:03:55;;;;;;;18.57;2.83;;;8.30;84.80;;;;;;5070608;28;20684;-67
2021/03/15 09:06:30;;;;;;;16.07;2.63;;;8.20;84.90;;;;;;5071545;28;20874;-66
2021/03/15 09:09:09;;;;;;;18.40;3.17;;;8.20;85.40;;;;;;5071218;28;20310;-67
2021/03/15 09:11:37;;;;;;;21.40;4.60;;;8.20;85.60;;;;;;5070763;28;20846;-67
2021/03/15 09:16:58;;;;;;;18.20;3.33;;;8.30;85.00;;;;;;5071136;28;20363;-67
2021/03/15 09:19:34;;;;;;;14.33;2.80;;;8.30;85.20;;;;;;5069937;28;20302;-68
2021/03/15 09:22:01;;;;;;;25.43;4.47;;;8.40;84.80;;;;;;5071066;28;20369;-67
2021/03/15 09:24:46;;;;;;;15.43;3.47;;;8.40;84.90;;;;;;5070569;28;20322;-67
2021/03/15 09:27:27;;;;;;;18.27;3.20;;;8.50;84.50;;;;;;5071185;28;20700;-68
2021/03/15 09:30:07;;;;;;;17.57;3.03;;;8.50;84.40;;;;;;5070928;28;20660;-67
2021/03/15 09:32:56;;;;;;;16.60;2.90;;;8.50;83.50;;;;;;5070579;28;20742;-66
2021/03/15 09:35:37;;;;;;;22.67;3.57;;;8.50;83.40;;;;;;5071128;28;20377;-67
2021/03/15 09:38:09;;;;;;;17.80;3.15;;;8.50;83.10;;;;;;5070091;28;20378;-67
2021/03/15 09:40:40;;;;;;;15.88;3.13;;;8.50;83.40;;;;;;5074827;28;20115;-68
2021/03/15 09:43:07;;;;;;;18.30;2.83;;;8.60;83.20;;;;;;5074744;28;20071;-67
2021/03/15 09:45:38;;;;;;;11.80;2.80;;;8.60;82.60;;;;;;5074579;28;20049;-67
2021/03/15 09:48:17;;;;;;;17.35;2.63;;;8.70;82.30;;;;;;5075049;28;20311;-66
2021/03/15 09:50:56;;;;;;;16.43;3.10;;;8.70;81.90;;;;;;5074948;28;20044;-66
2021/03/15 09:53:22;;;;;;;15.77;2.97;;;8.80;81.40;;;;;;5074200;28;20333;-66
2021/03/15 09:55:49;;;;;;;13.20;2.40;;;8.80;81.70;;;;;;5074728;28;20298;-67
2021/03/15 09:58:17;;;;;;;21.83;4.13;;;8.80;82.00;;;;;;5074766;28;20299;-67
2021/03/15 10:00:44;;;;;;;23.10;4.80;;;8.70;82.30;;;;;;5073847;28;20395;-67
2021/03/15 10:03:20;;;;;;;23.13;3.70;;;8.60;83.50;;;;;;5074380;28;20706;-67
2021/03/15 10:05:47;;;;;;;20.40;4.17;;;8.50;83.10;;;;;;5074722;28;20311;-67
2021/03/15 10:08:13;;;;;;;27.60;4.90;;;8.50;83.50;;;;;;5073760;28;20360;-67
2021/03/15 10:10:39;;;;;;;22.50;3.57;;;8.50;84.00;;;;;;5074535;28;20298;-67
2021/03/15 10:13:06;;;;;;;20.23;3.97;;;8.60;83.70;;;;;;5074018;28;20044;-66
2021/03/15 10:15:32;;;;;;;22.50;4.00;;;8.70;83.20;;;;;;5074918;28;20130;-67
2021/03/15 10:17:58;;;;;;;20.97;3.93;;;8.80;82.20;;;;;;5074504;28;20385;-67
2021/03/15 10:20:36;;;;;;;22.90;3.50;;;8.80;82.10;;;;;;5073438;28;20056;-67
2021/03/15 10:23:16;;;;;;;15.30;3.07;;;9.00;82.20;;;;;;5073991;28;20314;-67
2021/03/15 10:26:01;;;;;;;10.33;3.03;;;9.10;80.20;;;;;;5074744;28;20306;-67
2021/03/15 10:28:28;;;;;;;21.53;3.63;;;9.10;79.30;;;;;;5073580;28;20320;-67
2021/03/15 10:30:55;;;;;;;20.93;4.27;;;9.10;79.30;;;;;;5074162;28;20299;-67
2021/03/15 10:33:21;;;;;;;18.73;2.70;;;9.00;79.60;;;;;;5074056;28;20299;-67
2021/03/15 10:35:49;;;;;;;19.43;3.47;;;9.00;79.00;;;;;;5073474;28;20295;-67
2021/03/15 10:38:17;;;;;;;16.97;3.30;;;9.00;79.50;;;;;;5074124;28;20373;-67
2021/03/15 10:40:42;;;;;;;18.63;3.27;;;9.00;79.00;;;;;;5074145;28;20310;-66
2021/03/15 10:43:16;;;;;;;15.87;3.70;;;9.00;79.10;;;;;;5073059;28;20663;-67
2021/03/15 10:45:42;;;;;;;19.87;3.70;;;9.00;77.70;;;;;;5073908;28;20048;-67
2021/03/15 10:48:08;;;;;;;16.70;3.50;;;9.10;78.70;;;;;;5073663;28;20658;-67
2021/03/15 10:50:36;;;;;;;16.97;3.50;;;9.20;77.80;;;;;;5073034;28;20127;-67
2021/03/15 10:53:11;;;;;;;19.03;3.90;;;9.20;77.30;;;;;;5073750;28;20078;-67
2021/03/15 10:55:37;;;;;;;19.43;3.43;;;9.10;77.10;;;;;;5073318;28;20291;-67
2021/03/15 10:58:14;;;;;;;16.70;3.17;;;9.20;77.80;;;;;;5073200;28;20317;-66
2021/03/15 11:00:47;;;;;;;17.87;3.40;;;9.20;77.30;;;;;;5073792;28;20048;-67
2021/03/15 11:03:23;;;;;;;17.23;3.83;;;9.20;76.70;;;;;;5072915;28;20786;-67
2021/03/15 11:06:29;;;;;;;16.97;3.17;;;9.20;76.80;;;;;;5073778;28;20294;-66
2021/03/15 11:08:56;;;;;;;17.33;3.10;;;9.30;77.30;;;;;;5072271;28;20313;-67
2021/03/15 11:11:30;;;;;;;23.40;3.53;;;9.30;77.40;;;;;;5072851;28;20411;-67
2021/03/15 11:13:58;;;;;;;21.73;2.90;;;9.20;77.00;;;;;;5073195;28;20469;-67
2021/03/15 11:16:28;;;;;;;14.50;3.23;;;9.10;77.40;;;;;;5072609;28;20297;-67
2021/03/15 11:19:08;;;;;;;21.60;4.20;;;9.10;77.80;;;;;;5073223;28;20388;-67
2021/03/15 11:21:45;;;;;;;18.10;3.00;;;9.10;78.20;;;;;;5073672;28;20294;-67
2021/03/15 11:24:11;;;;;;;19.53;3.77;;;9.20;77.50;;;;;;5072332;28;20341;-67
2021/03/15 11:26:48;;;;;;;19.47;3.50;;;9.20;78.00;;;;;;5073161;28;20351;-67
2021/03/15 11:29:15;;;;;;;13.73;3.20;;;9.30;78.00;;;;;;5072947;28;20749;-67
2021/03/15 11:31:52;;;;;;;18.37;3.03;;;9.30;77.40;;;;;;5072435;28;20294;-67
2021/03/15 11:34:25;;;;;;;21.80;4.23;;;9.20;77.10;;;;;;5072974;28;20294;-67
2021/03/15 11:36:55;;;;;;;18.37;3.57;;;9.20;77.40;;;;;;5072597;28;20301;-67
2021/03/15 11:39:20;;;;;;;19.00;3.60;;;9.20;77.30;;;;;;5071966;28;20305;-67
2021/03/15 11:41:47;;;;;;;18.80;3.50;;;9.20;77.80;;;;;;5072685;28;20298;-68
2021/03/15 11:44:13;;;;;;;22.90;4.57;;;9.20;77.90;;;;;;5072469;28;20052;-67
2021/03/15 11:46:40;;;;;;;20.37;3.10;;;9.30;78.10;;;;;;5072162;28;20295;-67
2021/03/15 11:49:05;;;;;;;19.70;3.93;;;9.40;77.70;;;;;;5072507;28;20632;-67
2021/03/15 11:51:31;;;;;;;23.93;4.00;;;9.50;77.60;;;;;;5072246;28;20295;-67
2021/03/15 11:53:57;;;;;;;22.70;4.07;;;9.40;77.70;;;;;;5072482;28;20504;-67
2021/03/15 11:56:23;;;;;;;20.03;3.90;;;9.40;77.40;;;;;;5072411;28;20458;-67
2021/03/15 11:58:49;;;;;;;21.00;3.77;;;9.30;77.30;;;;;;5071588;28;20060;-67
2021/03/15 12:01:15;;;;;;;21.27;5.47;;;9.20;77.20;;;;;;5072543;28;20295;-67
2021/03/15 12:03:40;;;;;;;22.03;3.80;;;9.20;77.70;;;;;;5072284;28;20451;-67
2021/03/15 12:06:07;;;;;;;16.23;4.90;;;9.10;77.60;;;;;;5071726;28;20409;-67
2021/03/15 12:08:33;;;;;;;21.10;3.47;;;9.10;77.80;;;;;;5072438;28;20048;-67
2021/03/15 12:10:59;;;;;;;27.77;4.83;;;9.00;78.00;;;;;;5072112;28;20324;-67
2021/03/15 12:13:25;;;;;;;19.70;3.97;;;9.10;78.20;;;;;;5071554;28;20072;-67
2021/03/15 12:15:51;;;;;;;23.07;3.87;;;9.10;77.60;;;;;;5071792;28;20291;-67
2021/03/15 12:18:18;;;;;;;17.67;3.83;;;9.20;77.70;;;;;;5072286;28;20389;-67
2021/03/15 12:20:44;;;;;;;45.30;40.93;;;9.20;77.40;;;;;;5071114;28;20295;-67
2021/03/15 12:23:10;;;;;;;21.97;3.73;;;9.20;76.90;;;;;;5071737;28;20314;-67
2021/03/15 12:25:37;;;;;;;24.57;4.20;;;9.20;77.20;;;;;;5072114;28;20048;-67
2021/03/15 12:28:03;;;;;;;22.87;4.10;;;9.20;77.30;;;;;;5070932;28;20310;-67
2021/03/15 12:30:30;;;;;;;19.47;3.90;;;9.20;77.10;;;;;;5071957;28;20295;-67
2021/03/15 12:32:55;;;;;;;27.50;3.87;;;9.20;77.70;;;;;;5071785;28;20377;-67
2021/03/15 12:35:23;;;;;;;21.70;3.93;;;9.30;77.40;;;;;;5070853;28;21066;-67
2021/03/15 12:37:50;;;;;;;16.50;3.13;;;9.40;76.90;;;;;;5070419;28;20044;-68
2021/03/15 12:40:16;;;;;;;16.87;3.70;;;9.40;76.80;;;;;;5070454;28;20337;-67
2021/03/15 12:42:42;;;;;;;18.03;3.60;;;9.40;76.50;;;;;;5069306;28;20345;-67
2021/03/15 12:45:09;;;;;;;19.20;4.77;;;9.40;76.00;;;;;;5070105;28;20333;-67
2021/03/15 12:47:35;;;;;;;18.93;3.43;;;9.40;76.50;;;;;;5070643;28;20371;-67
2021/03/15 12:50:01;;;;;;;18.23;4.43;;;9.40;76.40;;;;;;5069579;28;20428;-67
2021/03/15 12:52:29;;;;;;;23.70;3.60;;;9.50;76.20;;;;;;5070101;28;20055;-67
2021/03/15 12:54:54;;;;;;;21.00;4.10;;;9.60;75.90;;;;;;5069396;28;20056;-68
2021/03/15 12:57:20;;;;;;;21.63;3.43;;;9.50;75.60;;;;;;5070280;28;20389;-67
2021/03/15 12:59:46;;;;;;;19.97;3.80;;;9.50;76.40;;;;;;5070121;28;20087;-67
2021/03/15 13:02:12;;;;;;;20.80;3.77;;;9.50;76.80;;;;;;5069538;28;20049;-67
2021/03/15 13:04:38;;;;;;;27.33;4.00;;;9.60;76.70;;;;;;5070137;28;20864;-68
2021/03/15 13:07:03;;;;;;;20.13;4.07;;;9.50;76.30;;;;;;5070915;28;20071;-67
2021/03/15 13:09:29;;;;;;;20.80;3.77;;;9.40;76.70;;;;;;5070614;28;20068;-67